createdAt,value
2023-01-19T00:02:28.432Z,99827.28
2023-01-19T00:07:33.044Z,99874.19
2023-01-19T00:12:35.586Z,99882.13
2023-01-19T00:17:40.782Z,99868.63
2023-01-19T00:22:44.664Z,99871.00
2023-01-19T00:27:49.300Z,99872.63
2023-01-19T00:32:52.264Z,99867.41
2023-01-19T00:37:56.834Z,99868.72
2023-01-19T00:43:00.647Z,99868.63
2023-01-19T00:48:04.776Z,99876.47
2023-01-19T00:53:08.665Z,99866.47
2023-01-19T00:58:11.277Z,99872.88
2023-01-19T01:03:13.998Z,99886.00
2023-01-19T01:08:18.004Z,99874.25
2023-01-19T01:13:23.652Z,99876.72
2023-01-19T01:18:29.352Z,99876.72
2023-01-19T01:23:33.300Z,99883.47
2023-01-19T01:28:35.858Z,99888.69
2023-01-19T01:33:40.472Z,99890.75
2023-01-19T01:38:46.052Z,99888.47
2023-01-19T01:43:50.848Z,99862.22
2023-01-19T01:49:01.031Z,99888.59
2023-01-19T01:54:18.189Z,99852.50
2023-01-19T01:59:26.579Z,99876.47
2023-01-19T02:04:31.033Z,99879.78
2023-01-19T02:09:55.284Z,99860.63
2023-01-19T02:14:57.851Z,99764.00
2023-01-19T02:20:00.542Z,99874.56
2023-01-19T02:25:05.551Z,99864.19
2023-01-19T02:30:10.106Z,99874.78
2023-01-19T02:35:13.434Z,99865.72
2023-01-19T02:40:20.676Z,99870.50
2023-01-19T02:45:23.870Z,99870.41
2023-01-19T02:50:38.243Z,99871.72
2023-01-19T02:55:48.673Z,99882.78
2023-01-19T03:01:04.696Z,99870.31
2023-01-19T03:06:14.553Z,99860.34
2023-01-19T03:11:18.692Z,99877.09
2023-01-19T03:16:24.280Z,99867.41
2023-01-19T03:21:28.912Z,99887.72
2023-01-19T03:26:38.033Z,99877.84
2023-01-19T03:31:42.877Z,99861.78
2023-01-19T03:36:50.630Z,99868.75
2023-01-19T03:41:59.557Z,99874.63
2023-01-19T03:47:04.048Z,99775.78
2023-01-19T03:52:06.968Z,99832.09
2023-01-19T03:57:11.343Z,99861.88
2023-01-19T04:02:14.761Z,99862.44
2023-01-19T04:07:17.566Z,99854.56
2023-01-19T04:12:23.398Z,99857.38
2023-01-19T04:17:27.371Z,99863.06
2023-01-19T04:22:30.811Z,99858.56
2023-01-19T04:27:34.766Z,99875.41
2023-01-19T04:32:37.758Z,99863.19
2023-01-19T04:37:40.328Z,99886.41
2023-01-19T04:42:46.021Z,99876.78
2023-01-19T04:47:48.622Z,99896.19
2023-01-19T04:52:51.758Z,99896.09
2023-01-19T04:57:55.887Z,99887.53
2023-01-19T05:02:58.659Z,99889.41
2023-01-19T05:08:01.776Z,99891.91
2023-01-19T05:13:05.762Z,99899.00
2023-01-19T05:18:08.764Z,99908.75
2023-01-19T05:23:11.581Z,99915.66
2023-01-19T05:28:16.660Z,99905.97
2023-01-19T05:33:19.220Z,99919.38
2023-01-19T05:38:34.592Z,99922.97
2023-01-19T05:43:39.046Z,99922.72
2023-01-19T05:48:41.659Z,99915.53
2023-01-19T05:53:44.212Z,99928.47
2023-01-19T05:58:48.149Z,99914.78
2023-01-19T06:03:50.768Z,99914.69
2023-01-19T06:08:53.370Z,99926.22
2023-01-19T06:13:57.357Z,99933.47
2023-01-19T06:19:00.325Z,99901.44
2023-01-19T06:24:03.493Z,99949.44
2023-01-19T06:29:07.825Z,99954.28
2023-01-19T06:34:11.349Z,99961.72
2023-01-19T06:39:14.177Z,99948.50
2023-01-19T06:44:21.381Z,99973.97
2023-01-19T06:49:24.748Z,99988.00
2023-01-19T06:54:27.395Z,99996.84
2023-01-19T06:59:32.032Z,100003.22
2023-01-19T07:04:35.127Z,100003.97
2023-01-19T07:09:37.913Z,100020.63
2023-01-19T07:14:41.848Z,100027.84
2023-01-19T07:19:44.426Z,100028.97
2023-01-19T07:24:47.143Z,100045.13
2023-01-19T07:29:51.455Z,100045.63
2023-01-19T07:34:54.224Z,100060.44
2023-01-19T07:39:56.903Z,100061.94
2023-01-19T07:45:00.900Z,100069.50
2023-01-19T07:50:03.549Z,100080.28
2023-01-19T07:55:07.210Z,100090.97
2023-01-19T08:00:14.368Z,100089.91
2023-01-19T08:05:18.134Z,100102.75
2023-01-19T08:10:22.890Z,100109.34
2023-01-19T08:15:27.289Z,100101.88
2023-01-19T08:20:30.520Z,100111.03
2023-01-19T08:25:34.367Z,100135.03
2023-01-19T08:30:38.736Z,100145.03
2023-01-19T08:35:42.744Z,100152.00
2023-01-19T08:40:46.198Z,100157.56
2023-01-19T08:45:53.828Z,100166.84
2023-01-19T08:50:57.010Z,100168.88
2023-01-19T08:56:01.213Z,100180.53
2023-01-19T09:01:05.521Z,100192.41
2023-01-19T09:06:08.908Z,100189.41
2023-01-19T09:11:13.155Z,100199.63
2023-01-19T09:16:18.081Z,100172.41
2023-01-19T09:21:21.068Z,100205.28
2023-01-19T09:26:25.055Z,100182.25
2023-01-19T09:31:29.388Z,100223.44
2023-01-19T09:36:32.376Z,100218.78
2023-01-19T09:41:38.471Z,100236.09
2023-01-19T09:46:43.122Z,100242.31
2023-01-19T09:51:48.733Z,100240.84
2023-01-19T09:56:52.933Z,100259.03
2023-01-19T10:02:20.187Z,100265.88
2023-01-19T10:07:34.201Z,100271.47
2023-01-19T10:12:50.918Z,100270.13
2023-01-19T10:18:05.016Z,100243.47
2023-01-19T10:23:22.719Z,100266.09
2023-01-19T10:28:27.491Z,100244.31
2023-01-19T10:33:32.828Z,100268.78
2023-01-19T10:38:36.118Z,100273.75
2023-01-19T10:43:41.522Z,100280.16
2023-01-19T10:48:48.963Z,100281.94
2023-01-19T10:53:58.353Z,100265.59
2023-01-19T10:59:03.091Z,100284.66
2023-01-19T11:04:28.605Z,100291.91
2023-01-19T11:09:31.192Z,100295.72
2023-01-19T11:14:33.822Z,100296.06
2023-01-19T11:19:37.791Z,100295.91
2023-01-19T11:24:40.561Z,100302.72
2023-01-19T11:29:49.036Z,100294.72
2023-01-19T11:34:53.401Z,100305.31
2023-01-19T11:39:58.705Z,100303.13
2023-01-19T11:45:05.960Z,100309.34
2023-01-19T11:50:16.219Z,100307.78
2023-01-19T11:55:24.055Z,100307.41
2023-01-19T12:00:35.471Z,100304.34
2023-01-19T12:05:44.035Z,100309.00
2023-01-19T12:10:48.515Z,100306.44
2023-01-19T12:15:57.708Z,100301.16
2023-01-19T12:21:04.100Z,100295.31
2023-01-19T12:26:28.166Z,100298.22
2023-01-19T12:31:30.806Z,100301.69
2023-01-19T12:36:40.103Z,100304.22
2023-01-19T12:41:43.647Z,100294.47
2023-01-19T12:46:47.668Z,100264.03
2023-01-19T12:51:54.432Z,100301.50
2023-01-19T12:57:00.949Z,100305.69
2023-01-19T13:02:38.338Z,100307.41
2023-01-19T13:08:19.222Z,100309.03
2023-01-19T13:13:24.421Z,100302.81
2023-01-19T13:18:29.562Z,100310.41
2023-01-19T13:23:54.623Z,100309.69
2023-01-19T13:29:03.638Z,100307.19
2023-01-19T13:34:13.530Z,100296.94
2023-01-19T13:39:23.668Z,100309.19
2023-01-19T13:44:28.928Z,100291.75
2023-01-19T13:49:34.485Z,100315.13
2023-01-19T13:54:38.413Z,100319.47
2023-01-19T13:59:40.998Z,100329.19
2023-01-19T14:04:44.029Z,100333.53
2023-01-19T14:09:48.659Z,100340.44
2023-01-19T14:14:51.347Z,100348.16
2023-01-19T14:19:56.224Z,100348.97
2023-01-19T14:25:22.228Z,100324.47
2023-01-19T14:30:25.910Z,100354.22
2023-01-19T14:35:29.951Z,100365.25
2023-01-19T14:40:38.760Z,100359.81
2023-01-19T14:45:47.843Z,100374.16
2023-01-19T14:51:03.495Z,100374.84
2023-01-19T14:56:08.439Z,100376.69
2023-01-19T15:01:11.112Z,100381.50
2023-01-19T15:06:16.205Z,100389.66
2023-01-19T15:11:24.237Z,100386.91
2023-01-19T15:16:30.177Z,100390.66
2023-01-19T15:21:32.886Z,100394.53
2023-01-19T15:26:37.866Z,100374.66
2023-01-19T15:31:40.465Z,100393.81
2023-01-19T15:36:43.331Z,100380.81
2023-01-19T15:41:47.982Z,100399.69
2023-01-19T15:46:52.232Z,100416.91
2023-01-19T15:51:56.514Z,100416.09
2023-01-19T15:57:01.482Z,100305.25
2023-01-19T16:02:05.795Z,100442.56
2023-01-19T16:07:08.993Z,100442.75
2023-01-19T16:12:12.903Z,100441.78
2023-01-19T16:17:15.619Z,100444.06
2023-01-19T16:22:18.196Z,100455.66
2023-01-19T16:27:22.104Z,100454.81
2023-01-19T16:32:24.743Z,100433.75
2023-01-19T16:37:28.182Z,100465.69
2023-01-19T16:42:32.111Z,100465.34
2023-01-19T16:47:34.855Z,100468.09
2023-01-19T16:52:37.475Z,100468.03
2023-01-19T16:57:41.412Z,100477.56
2023-01-19T17:02:43.974Z,100479.28
2023-01-19T17:07:46.517Z,100475.66
2023-01-19T17:12:50.620Z,100480.19
2023-01-19T17:17:53.274Z,100478.69
2023-01-19T17:22:56.847Z,100486.94
2023-01-19T17:28:01.231Z,100489.53
2023-01-19T17:33:04.149Z,100486.94
2023-01-19T17:38:07.135Z,100499.47
2023-01-19T17:43:11.022Z,100509.66
2023-01-19T17:48:14.025Z,100512.03
2023-01-19T17:53:16.712Z,100513.38
2023-01-19T17:58:21.171Z,100510.09
2023-01-19T18:03:24.118Z,100510.97
2023-01-19T18:08:26.937Z,100521.91
2023-01-19T18:13:31.298Z,100511.19
2023-01-19T18:18:34.495Z,100458.78
2023-01-19T18:23:38.422Z,100527.34
2023-01-19T18:28:43.102Z,100522.25
2023-01-19T18:33:46.594Z,100524.72
2023-01-19T18:38:49.832Z,100526.28
2023-01-19T18:43:58.155Z,100524.47
2023-01-19T18:49:00.850Z,100524.47
2023-01-19T18:54:03.595Z,100523.19
2023-01-19T18:59:07.548Z,100530.50
2023-01-19T19:04:10.247Z,100537.78
2023-01-19T19:09:12.852Z,100537.56
2023-01-19T19:14:16.833Z,100540.47
2023-01-19T19:19:20.323Z,100535.03
2023-01-19T19:24:23.315Z,100530.84
2023-01-19T19:29:28.289Z,100514.63
2023-01-19T19:34:31.353Z,100542.13
2023-01-19T19:39:33.957Z,100544.16
2023-01-19T19:44:38.483Z,100547.31
2023-01-19T19:49:41.196Z,100553.69
2023-01-19T19:54:44.364Z,100555.72
2023-01-19T19:59:48.502Z,100532.44
2023-01-19T20:04:51.493Z,100550.25
2023-01-19T20:09:55.247Z,100562.72
2023-01-19T20:14:59.526Z,100558.81
2023-01-19T20:20:04.304Z,100579.09
2023-01-19T20:25:08.023Z,100539.78
2023-01-19T20:30:13.444Z,100581.66
2023-01-19T20:35:16.360Z,100589.91
2023-01-19T20:40:20.120Z,100595.66
2023-01-19T20:45:25.906Z,100569.25
2023-01-19T20:50:28.591Z,100603.41
2023-01-19T20:55:32.008Z,100619.38
2023-01-19T21:00:41.530Z,100622.97
2023-01-19T21:05:47.684Z,100629.84
2023-01-19T21:10:50.380Z,100639.00
2023-01-19T21:15:54.387Z,100645.34
2023-01-19T21:20:58.210Z,100608.91
2023-01-19T21:26:01.723Z,100659.28
2023-01-19T21:31:08.649Z,100664.59
2023-01-19T21:36:11.859Z,100670.53
2023-01-19T21:41:16.405Z,100673.00
2023-01-19T21:46:22.600Z,100596.03
2023-01-19T21:51:25.224Z,100697.63
2023-01-19T21:56:29.333Z,100601.13
2023-01-19T22:01:34.175Z,100678.44
2023-01-19T22:06:36.803Z,100601.94
2023-01-19T22:11:39.451Z,100694.19
2023-01-19T22:16:43.564Z,100651.00
2023-01-19T22:21:46.172Z,100693.53
2023-01-19T22:26:48.726Z,100705.41
2023-01-19T22:31:52.936Z,100717.88
2023-01-19T22:36:55.541Z,100725.09
2023-01-19T22:41:58.171Z,100735.16
2023-01-19T22:47:02.187Z,100731.38
2023-01-19T22:52:04.937Z,100741.06
2023-01-19T22:57:11.047Z,100746.94
2023-01-19T23:02:15.054Z,100739.84
2023-01-19T23:07:17.662Z,100741.94
2023-01-19T23:12:20.906Z,100747.22
2023-01-19T23:17:24.930Z,100746.09
2023-01-19T23:22:27.459Z,100741.56
2023-01-19T23:27:30.031Z,100740.63
2023-01-19T23:32:33.975Z,100739.53
2023-01-19T23:37:36.544Z,100753.72
2023-01-19T23:42:39.293Z,100743.34
2023-01-19T23:47:43.885Z,100752.63
2023-01-19T23:52:46.507Z,100768.63
2023-01-19T23:57:49.063Z,100764.75
